Time;durP1;ratioP1;P1;durP2;ratioP2;P2;SDS_P1;SDS_P2;PMS_P1;PMS_P2;Temp;Humidity;BMP_temperature;BMP_pressure;BME280_temperature;BME280_humidity;BME280_pressure;Samples;Min_cycle;Max_cycle;Signal;HPM_P1;HPM_P2
2023/12/27 14:30:43;;;;;;;5.15;2.90;;;9.60;92.20;;;;;;7599998;19;20366;-71
2023/12/27 14:33:16;;;;;;;5.25;2.92;;;9.60;92.30;;;;;;7565337;19;20094;-74
2023/12/27 14:35:48;;;;;;;5.20;2.88;;;9.60;92.60;;;;;;7579612;19;20017;-72
2023/12/27 14:38:20;;;;;;;5.72;3.15;;;9.60;92.70;;;;;;7575249;19;20097;-71
2023/12/27 14:40:53;;;;;;;4.70;2.95;;;9.60;92.40;;;;;;7525382;19;20715;-71
2023/12/27 14:43:25;;;;;;;5.65;2.88;;;9.60;92.50;;;;;;7556835;19;20468;-73
2023/12/27 14:45:59;;;;;;;6.45;3.83;;;9.50;93.20;;;;;;7572889;19;20032;-72
2023/12/27 14:48:36;;;;;;;4.95;3.13;;;9.50;92.70;;;;;;7567292;19;20034;-73
2023/12/27 14:51:09;;;;;;;6.78;3.50;;;9.50;92.90;;;;;;7590184;19;20014;-72
2023/12/27 14:53:45;;;;;;;8.43;4.28;;;9.40;93.20;;;;;;7592399;19;20014;-73
2023/12/27 14:56:18;;;;;;;5.55;3.35;;;9.40;93.20;;;;;;7584426;19;20041;-71
2023/12/27 14:58:51;;;;;;;7.93;3.50;;;9.30;92.80;;;;;;7595073;19;20021;-73
2023/12/27 15:01:24;;;;;;;7.05;3.38;;;9.20;93.40;;;;;;7566453;19;20018;-73
2023/12/27 15:03:56;;;;;;;7.05;3.58;;;9.10;93.30;;;;;;7563601;19;21991;-73
2023/12/27 15:06:30;;;;;;;5.03;2.97;;;9.00;93.90;;;;;;7583509;19;20018;-73
2023/12/27 15:09:03;;;;;;;7.28;3.88;;;8.90;94.00;;;;;;7568610;19;21069;-72
2023/12/27 15:11:36;;;;;;;5.07;3.22;;;8.80;93.80;;;;;;7580903;19;20033;-73
2023/12/27 15:14:08;;;;;;;6.28;3.40;;;8.80;94.00;;;;;;7567154;19;20018;-73
2023/12/27 15:16:41;;;;;;;7.93;3.30;;;8.70;94.20;;;;;;7590649;19;20025;-73
2023/12/27 15:19:14;;;;;;;6.72;3.90;;;8.50;95.30;;;;;;7557023;19;20459;-73
2023/12/27 15:21:47;;;;;;;6.30;3.90;;;8.40;95.20;;;;;;7550685;19;20857;-73
2023/12/27 15:24:19;;;;;;;5.40;3.55;;;8.40;94.90;;;;;;7591346;19;20098;-74
2023/12/27 15:26:52;;;;;;;8.30;4.05;;;8.40;95.40;;;;;;7605887;19;20046;-72
2023/12/27 15:29:24;;;;;;;7.97;4.30;;;8.30;96.20;;;;;;7585177;19;20129;-72
2023/12/27 15:31:57;;;;;;;7.55;4.15;;;8.20;96.10;;;;;;7599093;19;20491;-72
2023/12/27 15:34:30;;;;;;;5.22;3.67;;;8.10;96.90;;;;;;7557523;19;20019;-72
2023/12/27 15:37:03;;;;;;;6.45;3.60;;;8.10;97.60;;;;;;7558808;19;20397;-73
2023/12/27 15:39:35;;;;;;;6.73;3.97;;;8.00;97.30;;;;;;7570908;19;20033;-73
2023/12/27 15:42:08;;;;;;;8.52;3.72;;;7.90;97.50;;;;;;7552784;19;20094;-73
2023/12/27 15:44:41;;;;;;;7.40;3.95;;;7.80;98.00;;;;;;7550902;19;20101;-74
2023/12/27 15:47:14;;;;;;;5.35;3.72;;;7.70;98.60;;;;;;7577074;19;20588;-73
2023/12/27 15:49:46;;;;;;;7.80;4.10;;;7.60;98.70;;;;;;7598990;19;20022;-72
2023/12/27 15:52:19;;;;;;;6.28;3.78;;;7.60;98.90;;;;;;7587742;19;20615;-72
2023/12/27 15:54:52;;;;;;;7.70;3.72;;;7.50;98.80;;;;;;7605447;19;20022;-72
2023/12/27 15:57:27;;;;;;;6.53;3.80;;;7.40;98.80;;;;;;7559326;19;20018;-73
2023/12/27 16:00:05;;;;;;;6.40;3.58;;;7.40;99.90;;;;;;7598200;19;20018;-71
2023/12/27 16:02:37;;;;;;;6.05;4.05;;;7.20;99.90;;;;;;7581371;19;20018;-73
2023/12/27 16:05:10;;;;;;;6.82;3.42;;;7.20;99.90;;;;;;7554595;19;20022;-72
2023/12/27 16:07:42;;;;;;;7.80;3.78;;;7.10;99.90;;;;;;7578447;19;20017;-72
2023/12/27 16:10:14;;;;;;;6.15;3.90;;;7.10;99.90;;;;;;7534539;19;21806;-73
2023/12/27 16:12:47;;;;;;;7.00;3.85;;;6.90;99.90;;;;;;7534869;19;20033;-73
2023/12/27 16:15:20;;;;;;;8.50;3.47;;;6.90;99.90;;;;;;7579815;19;21672;-72
2023/12/27 16:17:53;;;;;;;5.57;3.78;;;6.80;99.90;;;;;;7577424;19;20310;-72
2023/12/27 16:20:26;;;;;;;6.55;3.50;;;6.70;99.90;;;;;;7565232;19;20026;-72
2023/12/27 16:22:59;;;;;;;5.63;3.53;;;6.70;99.90;;;;;;7568519;19;20488;-73
2023/12/27 16:25:32;;;;;;;8.10;3.97;;;6.70;99.90;;;;;;7568050;19;20018;-73
2023/12/27 16:28:05;;;;;;;6.63;3.72;;;6.60;99.90;;;;;;7557723;19;20014;-72
2023/12/27 16:30:37;;;;;;;10.02;3.85;;;6.50;99.90;;;;;;7538178;19;20007;-72
2023/12/27 16:33:10;;;;;;;4.32;3.05;;;6.50;99.90;;;;;;7546430;19;20104;-72
2023/12/27 16:35:43;;;;;;;6.28;4.07;;;6.40;99.90;;;;;;7552377;19;20086;-72
2023/12/27 16:38:16;;;;;;;10.77;4.40;;;6.30;99.90;;;;;;7554528;19;21405;-72
2023/12/27 16:40:52;;;;;;;6.60;3.93;;;6.20;99.90;;;;;;7582815;19;20025;-72
2023/12/27 16:43:30;;;;;;;6.93;3.65;;;6.20;99.90;;;;;;7564573;19;20014;-72
2023/12/27 16:46:04;;;;;;;6.00;3.88;;;6.10;99.90;;;;;;7562484;19;20630;-72
2023/12/27 16:48:42;;;;;;;8.82;3.72;;;5.90;99.90;;;;;;7570450;19;20010;-72
2023/12/27 16:51:15;;;;;;;7.97;4.18;;;5.90;99.90;;;;;;7561852;19;20792;-72
2023/12/27 16:53:48;;;;;;;8.40;4.30;;;5.90;99.90;;;;;;7583949;19;20015;-72
2023/12/27 16:56:21;;;;;;;8.98;3.88;;;5.90;99.90;;;;;;7579442;19;20022;-72
2023/12/27 16:58:53;;;;;;;;;;;5.90;99.90;;;;;;7573703;19;20018;-74
2023/12/27 17:01:26;;;;;;;7.35;3.75;;;5.90;99.90;;;;;;7559885;19;19915;-72
2023/12/27 17:03:58;;;;;;;8.18;4.65;;;5.80;99.90;;;;;;7562277;19;20021;-74
2023/12/27 17:06:31;;;;;;;10.43;4.53;;;5.70;99.90;;;;;;7565049;19;20018;-72
2023/12/27 17:09:04;;;;;;;8.15;4.13;;;5.60;99.90;;;;;;7565909;19;20026;-73
2023/12/27 17:11:38;;;;;;;9.07;4.38;;;5.70;99.90;;;;;;7582741;19;20022;-73
2023/12/27 17:14:10;;;;;;;11.30;7.00;;;5.70;99.90;;;;;;7580905;19;20018;-73
2023/12/27 17:16:43;;;;;;;11.73;5.05;;;5.60;99.90;;;;;;7550306;19;20620;-74
2023/12/27 17:19:16;;;;;;;7.22;4.47;;;5.60;99.90;;;;;;7549425;19;20763;-72
2023/12/27 17:21:48;;;;;;;8.80;5.40;;;5.50;99.90;;;;;;7562494;19;20018;-71
2023/12/27 17:24:21;;;;;;;7.88;4.90;;;5.40;99.90;;;;;;7555158;19;20029;-73
2023/12/27 17:26:54;;;;;;;10.95;4.53;;;5.40;99.90;;;;;;7547719;19;20018;-72
2023/12/27 17:29:26;;;;;;;8.85;4.95;;;5.30;99.90;;;;;;7551740;19;20019;-72
2023/12/27 17:32:00;;;;;;;9.48;5.10;;;5.30;99.90;;;;;;7564025;19;20021;-72
2023/12/27 17:34:33;;;;;;;8.88;4.70;;;5.20;99.90;;;;;;7565156;19;20100;-71
2023/12/27 17:37:05;;;;;;;9.35;5.50;;;5.30;99.90;;;;;;7563909;19;20543;-71
2023/12/27 17:39:39;;;;;;;12.82;5.65;;;5.20;99.90;;;;;;7552647;19;20048;-72
2023/12/27 17:42:12;;;;;;;12.75;5.40;;;5.10;99.90;;;;;;7576827;19;20022;-73
2023/12/27 17:44:44;;;;;;;9.75;5.53;;;5.00;99.90;;;;;;7557760;19;20234;-73
2023/12/27 17:47:17;;;;;;;9.77;5.47;;;4.90;99.90;;;;;;7574549;19;20021;-73
2023/12/27 17:49:49;;;;;;;8.85;5.35;;;4.90;99.90;;;;;;7580480;19;20132;-73
2023/12/27 17:52:28;;;;;;;12.88;6.30;;;4.90;99.90;;;;;;7580963;19;20021;-74
2023/12/27 17:55:00;;;;;;;11.85;6.40;;;4.80;99.90;;;;;;7572141;19;20017;-74
2023/12/27 17:57:35;;;;;;;10.70;6.45;;;4.80;99.90;;;;;;7549868;19;21436;-74
2023/12/27 18:00:09;;;;;;;12.25;8.30;;;4.90;99.90;;;;;;7589098;19;21124;-73
2023/12/27 18:02:43;;;;;;;11.90;7.32;;;4.90;99.90;;;;;;7584232;19;20655;-74
2023/12/27 18:05:15;;;;;;;14.52;8.20;;;4.90;99.90;;;;;;7572506;19;20361;-73
2023/12/27 18:07:48;;;;;;;17.95;9.48;;;4.90;99.90;;;;;;7565214;19;20085;-73
2023/12/27 18:10:24;;;;;;;14.83;8.60;;;4.80;99.90;;;;;;7547823;19;20018;-72
2023/12/27 18:12:56;;;;;;;17.55;8.55;;;4.70;99.90;;;;;;7525883;19;20312;-73
2023/12/27 18:15:29;;;;;;;16.87;9.20;;;4.70;99.90;;;;;;7526869;19;20018;-73
2023/12/27 18:18:01;;;;;;;16.52;9.10;;;4.70;99.90;;;;;;7551059;19;20022;-73
2023/12/27 18:20:33;;;;;;;14.80;7.95;;;4.70;99.90;;;;;;7538786;19;20109;-72
2023/12/27 18:23:06;;;;;;;14.50;8.80;;;4.60;99.90;;;;;;7559866;19;20490;-73
2023/12/27 18:25:39;;;;;;;17.33;9.20;;;4.60;99.90;;;;;;7544903;19;21093;-72
2023/12/27 18:28:13;;;;;;;15.43;9.07;;;4.50;99.90;;;;;;7564360;19;20458;-74
2023/12/27 18:30:45;;;;;;;19.73;9.83;;;4.40;99.90;;;;;;7559103;19;20015;-72
2023/12/27 18:33:18;;;;;;;17.75;10.07;;;4.40;99.90;;;;;;7556958;19;20035;-71
2023/12/27 18:35:53;;;;;;;15.05;9.00;;;4.30;99.90;;;;;;7560612;19;20067;-72
2023/12/27 18:38:26;;;;;;;12.75;8.75;;;4.30;99.90;;;;;;7550420;19;21438;-72
2023/12/27 18:40:59;;;;;;;16.60;8.55;;;4.30;99.90;;;;;;7547024;19;20014;-71
2023/12/27 18:43:31;;;;;;;12.68;8.00;;;4.10;99.90;;;;;;7558891;19;22269;-73
2023/12/27 18:46:03;;;;;;;13.00;7.40;;;4.20;99.90;;;;;;7561287;19;20018;-74
2023/12/27 18:48:37;;;;;;;15.20;8.55;;;4.20;99.90;;;;;;7550234;19;20011;-72
2023/12/27 18:51:12;;;;;;;12.25;7.40;;;4.00;99.90;;;;;;7548994;19;22466;-71
2023/12/27 18:53:46;;;;;;;16.27;8.63;;;4.10;99.90;;;;;;7546819;19;20011;-72
2023/12/27 18:56:19;;;;;;;12.88;7.03;;;4.10;99.90;;;;;;7539714;19;20022;-72
2023/12/27 18:58:52;;;;;;;19.50;9.50;;;4.00;99.90;;;;;;7547191;19;20038;-72
2023/12/27 19:01:24;;;;;;;24.52;12.93;;;4.00;99.90;;;;;;7550987;19;20014;-74
2023/12/27 19:03:57;;;;;;;24.30;12.90;;;4.10;99.90;;;;;;7549415;19;20018;-73
2023/12/27 19:06:29;;;;;;;21.10;11.50;;;4.20;99.90;;;;;;7527942;19;20451;-71
2023/12/27 19:09:03;;;;;;;22.10;11.48;;;4.30;99.90;;;;;;7543263;19;20049;-72
2023/12/27 19:11:35;;;;;;;19.17;10.30;;;4.30;99.90;;;;;;7538963;19;20056;-74
2023/12/27 19:14:07;;;;;;;20.42;10.85;;;4.40;99.90;;;;;;7532871;19;20410;-73
2023/12/27 19:16:40;;;;;;;24.30;12.65;;;4.30;99.90;;;;;;7550233;19;20013;-74
2023/12/27 19:19:16;;;;;;;19.40;10.60;;;4.10;99.90;;;;;;7530081;19;21643;-74
2023/12/27 19:21:55;;;;;;;21.92;10.63;;;4.10;99.90;;;;;;7570739;19;20029;-73
2023/12/27 19:24:29;;;;;;;21.02;10.82;;;4.20;99.90;;;;;;7548470;19;20025;-73
2023/12/27 19:27:01;;;;;;;19.50;11.32;;;4.20;99.90;;;;;;7574275;19;20014;-73
2023/12/27 19:29:34;;;;;;;24.30;13.05;;;4.20;99.90;;;;;;7561211;19;20018;-72
2023/12/27 19:32:11;;;;;;;21.90;12.32;;;4.20;99.90;;;;;;7562975;19;21696;-73
2023/12/27 19:34:43;;;;;;;17.92;11.10;;;4.30;99.90;;;;;;7558010;19;20816;-74
2023/12/27 19:37:16;;;;;;;21.77;10.68;;;4.20;99.90;;;;;;7569906;19;20014;-73
2023/12/27 19:39:49;;;;;;;21.85;11.05;;;4.10;99.90;;;;;;7546995;19;20098;-74
2023/12/27 19:42:23;;;;;;;22.20;11.95;;;4.10;99.90;;;;;;7565639;19;20026;-74
2023/12/27 19:44:55;;;;;;;22.35;12.35;;;4.10;99.90;;;;;;7561024;19;20721;-74
2023/12/27 19:47:29;;;;;;;24.77;12.95;;;4.10;99.90;;;;;;7569147;19;20010;-74
2023/12/27 19:50:05;;;;;;;22.35;12.82;;;4.10;99.90;;;;;;7553061;19;20126;-75
2023/12/27 19:52:38;;;;;;;22.63;12.73;;;4.10;99.90;;;;;;7553940;19;20632;-74
2023/12/27 19:55:12;;;;;;;21.63;11.50;;;4.10;99.90;;;;;;7544922;19;20113;-74
2023/12/27 19:57:44;;;;;;;23.95;12.27;;;4.00;99.90;;;;;;7553439;19;20302;-72
2023/12/27 20:00:17;;;;;;;20.70;10.82;;;4.00;99.90;;;;;;7555694;19;20018;-72
2023/12/27 20:02:50;;;;;;;19.77;10.57;;;3.90;99.90;;;;;;7552230;19;20018;-73
2023/12/27 20:05:23;;;;;;;20.95;10.90;;;3.90;99.90;;;;;;7551134;19;20348;-74
2023/12/27 20:07:55;;;;;;;20.70;10.40;;;3.90;99.90;;;;;;7527599;19;20029;-73
2023/12/27 20:10:28;;;;;;;20.27;11.37;;;3.80;99.90;;;;;;7552062;19;20015;-71
2023/12/27 20:13:04;;;;;;;18.08;10.90;;;3.70;99.90;;;;;;7570357;19;21346;-72
2023/12/27 20:15:38;;;;;;;19.90;11.05;;;3.70;99.90;;;;;;7563678;19;20473;-73
2023/12/27 20:18:16;;;;;;;23.10;12.05;;;3.70;99.90;;;;;;7563942;19;20488;-75
2023/12/27 20:20:49;;;;;;;20.40;10.88;;;3.70;99.90;;;;;;7568421;19;20021;-73
2023/12/27 20:23:21;;;;;;;18.03;11.23;;;3.70;99.90;;;;;;7553484;19;20506;-73
2023/12/27 20:25:54;;;;;;;21.05;12.10;;;3.60;99.90;;;;;;7562631;19;20019;-74
2023/12/27 20:28:26;;;;;;;19.30;11.10;;;3.60;99.90;;;;;;7565060;19;20113;-73
2023/12/27 20:30:58;;;;;;;19.35;11.43;;;3.60;99.90;;;;;;7560163;19;20161;-73
2023/12/27 20:33:33;;;;;;;23.50;10.98;;;3.60;99.90;;;;;;7549280;19;20813;-74
2023/12/27 20:36:05;;;;;;;21.77;11.55;;;3.60;99.90;;;;;;7533383;19;21468;-73
2023/12/27 20:38:41;;;;;;;20.95;11.05;;;3.50;99.90;;;;;;7544440;19;20030;-72
2023/12/27 20:41:15;;;;;;;18.80;10.52;;;3.50;99.90;;;;;;7559072;19;20479;-75
2023/12/27 20:43:48;;;;;;;16.73;9.30;;;3.70;99.90;;;;;;7548750;19;20060;-73
2023/12/27 20:46:20;;;;;;;15.17;9.90;;;3.90;99.90;;;;;;7537704;19;20019;-72
2023/12/27 20:48:53;;;;;;;16.40;9.38;;;4.00;99.90;;;;;;7555994;19;20049;-71
2023/12/27 20:51:25;;;;;;;16.73;8.93;;;4.00;99.90;;;;;;7562641;19;20017;-71
2023/12/27 20:53:58;;;;;;;18.20;8.57;;;3.90;99.90;;;;;;7545067;19;20034;-71
2023/12/27 20:56:30;;;;;;;13.68;8.13;;;4.00;99.90;;;;;;7576073;19;21280;-71
2023/12/27 20:59:03;;;;;;;12.93;7.28;;;4.10;99.90;;;;;;7571461;19;20046;-72
2023/12/27 21:01:39;;;;;;;12.10;7.05;;;4.20;99.90;;;;;;7550866;19;20022;-71
2023/12/27 21:04:11;;;;;;;10.70;7.13;;;4.30;99.90;;;;;;7572185;19;20034;-71
2023/12/27 21:06:44;;;;;;;13.18;7.10;;;4.30;99.90;;;;;;7562773;19;20025;-72
2023/12/27 21:09:16;;;;;;;14.68;8.27;;;4.30;99.90;;;;;;7539823;19;20025;-73
2023/12/27 21:11:50;;;;;;;13.63;7.10;;;4.10;99.90;;;;;;7543491;19;20032;-73
2023/12/27 21:14:23;;;;;;;11.85;6.88;;;4.00;99.90;;;;;;7560705;19;20106;-72
2023/12/27 21:16:59;;;;;;;10.50;6.18;;;3.90;99.90;;;;;;7552045;19;20022;-72
2023/12/27 21:19:32;;;;;;;11.35;7.28;;;4.00;99.90;;;;;;7506252;19;20022;-73
2023/12/27 21:22:05;;;;;;;12.83;7.57;;;4.00;99.90;;;;;;7524723;19;20232;-72
2023/12/27 21:24:37;;;;;;;11.32;7.15;;;3.80;99.90;;;;;;7550516;19;20022;-73
2023/12/27 21:27:10;;;;;;;15.18;8.07;;;3.80;99.90;;;;;;7563036;19;20014;-73
2023/12/27 21:29:42;;;;;;;14.68;7.93;;;3.60;99.90;;;;;;7549251;19;20027;-72
2023/12/27 21:32:15;;;;;;;11.63;7.50;;;3.40;99.90;;;;;;7541760;19;20916;-74
2023/12/27 21:34:47;;;;;;;13.57;8.63;;;3.40;99.90;;;;;;7537029;19;20018;-73
2023/12/27 21:37:20;;;;;;;13.88;6.80;;;3.50;99.90;;;;;;7541044;19;20015;-72
2023/12/27 21:39:53;;;;;;;18.33;8.57;;;3.50;99.90;;;;;;7511715;19;20042;-73
2023/12/27 21:42:26;;;;;;;11.70;7.22;;;3.50;99.90;;;;;;7537251;19;20633;-73
2023/12/27 21:44:59;;;;;;;12.27;7.32;;;3.60;99.90;;;;;;7573315;19;20113;-73
2023/12/27 21:47:32;;;;;;;;;;;3.50;99.90;;;;;;7549139;19;20017;-73
2023/12/27 21:50:04;;;;;;;11.88;7.40;;;3.40;99.90;;;;;;7545681;19;20258;-72
2023/12/27 21:52:37;;;;;;;13.23;7.03;;;3.30;99.90;;;;;;7564569;19;20019;-72
2023/12/27 21:55:10;;;;;;;14.82;7.68;;;3.20;99.90;;;;;;7545435;19;20018;-71
2023/12/27 21:57:42;;;;;;;14.30;6.93;;;3.10;99.90;;;;;;7549468;19;20010;-72
2023/12/27 22:00:17;;;;;;;12.27;7.00;;;3.00;99.90;;;;;;7553050;19;20275;-73
2023/12/27 22:02:50;;;;;;;11.93;6.68;;;2.90;99.90;;;;;;7553040;19;20014;-72
